createdAt,value
2022-07-26T00:01:32.583Z,101019.53
2022-07-26T00:04:05.272Z,101019.53
2022-07-26T00:06:34.981Z,101025.75
2022-07-26T00:09:05.252Z,101021.31
2022-07-26T00:11:36.145Z,101019.56
2022-07-26T00:14:08.544Z,101022.22
2022-07-26T00:16:39.321Z,101022.22
2022-07-26T00:19:11.714Z,101029.34
2022-07-26T00:21:42.609Z,101032.03
2022-07-26T00:24:12.619Z,101020.44
2022-07-26T00:26:42.364Z,101028.44
2022-07-26T00:29:12.234Z,101022.19
2022-07-26T00:31:42.051Z,101020.44
2022-07-26T00:34:14.486Z,101028.47
2022-07-26T00:36:44.556Z,101032.88
2022-07-26T00:39:14.265Z,101024.88
2022-07-26T00:41:44.014Z,101033.78
2022-07-26T00:44:14.394Z,101027.56
2022-07-26T00:46:45.168Z,101033.78
2022-07-26T00:49:17.740Z,101032.91
2022-07-26T00:51:47.641Z,101030.25
2022-07-26T00:54:20.097Z,101028.47
2022-07-26T00:56:54.979Z,101031.16
2022-07-26T00:59:25.376Z,101027.59
2022-07-26T01:01:56.732Z,101029.34
2022-07-26T01:04:29.217Z,101029.38
2022-07-26T01:06:59.504Z,101037.38
2022-07-26T01:09:29.389Z,101038.25
2022-07-26T01:12:01.961Z,101040.94
2022-07-26T01:14:31.700Z,101045.38
2022-07-26T01:17:01.554Z,101041.81
2022-07-26T01:19:34.028Z,101040.03
2022-07-26T01:22:09.913Z,101045.38
2022-07-26T01:24:42.301Z,101047.16
2022-07-26T01:27:12.351Z,101043.59
2022-07-26T01:29:42.129Z,101039.13
2022-07-26T01:32:12.385Z,101039.16
2022-07-26T01:34:42.079Z,101036.47
2022-07-26T01:37:14.674Z,101039.13
2022-07-26T01:39:45.865Z,101041.84
2022-07-26T01:42:15.642Z,101044.47
2022-07-26T01:44:45.381Z,101058.75
2022-07-26T01:47:15.089Z,101050.78
2022-07-26T01:49:44.883Z,101054.31
2022-07-26T01:52:17.212Z,101059.66
2022-07-26T01:54:46.926Z,101062.38
2022-07-26T01:57:16.699Z,101073.97
2022-07-26T01:59:46.529Z,101071.31
2022-07-26T02:02:16.331Z,101078.44
2022-07-26T02:04:58.715Z,101088.25
2022-07-26T02:07:32.542Z,101075.78
2022-07-26T02:10:03.142Z,101084.69
2022-07-26T02:12:33.390Z,101082.91
2022-07-26T02:15:03.700Z,101084.63
2022-07-26T02:17:33.427Z,101087.31
2022-07-26T02:20:03.366Z,101087.28
2022-07-26T02:22:35.735Z,101088.19
2022-07-26T02:25:05.908Z,101090.84
2022-07-26T02:27:35.799Z,101092.59
2022-07-26T02:30:05.653Z,101089.91
2022-07-26T02:32:35.534Z,101103.22
2022-07-26T02:35:05.376Z,101106.72
2022-07-26T02:37:43.642Z,101108.50
2022-07-26T02:40:19.349Z,101105.78
2022-07-26T02:42:49.448Z,101106.69
2022-07-26T02:45:19.228Z,101108.44
2022-07-26T02:47:50.614Z,101106.69
2022-07-26T02:50:21.716Z,101108.44
2022-07-26T02:52:55.245Z,101110.13
2022-07-26T02:55:27.077Z,101111.94
2022-07-26T02:57:57.205Z,101117.25
2022-07-26T03:00:29.045Z,101112.88
2022-07-26T03:02:59.152Z,101125.31
2022-07-26T03:05:29.087Z,101119.06
2022-07-26T03:08:01.802Z,101125.16
2022-07-26T03:10:31.632Z,101127.84
2022-07-26T03:13:01.554Z,101137.59
2022-07-26T03:15:31.362Z,101141.19
2022-07-26T03:18:01.427Z,101145.56
2022-07-26T03:20:31.323Z,101148.22
2022-07-26T03:23:03.686Z,101151.78
2022-07-26T03:25:33.395Z,101145.56
2022-07-26T03:28:08.057Z,101152.75
2022-07-26T03:30:38.388Z,101160.72
2022-07-26T03:33:08.135Z,101157.16
2022-07-26T03:35:37.914Z,101155.25
2022-07-26T03:38:10.229Z,101161.56
2022-07-26T03:40:40.051Z,101167.81
2022-07-26T03:43:09.756Z,101165.16
2022-07-26T03:45:40.044Z,101167.78
2022-07-26T03:48:10.215Z,101171.34
2022-07-26T03:50:43.167Z,101185.50
2022-07-26T03:53:15.521Z,101186.41
2022-07-26T03:55:57.642Z,101187.28
2022-07-26T03:58:27.349Z,101186.38
2022-07-26T04:00:57.097Z,101197.84
2022-07-26T04:03:26.835Z,101200.47
2022-07-26T04:05:57.541Z,101203.97
2022-07-26T04:08:30.168Z,101206.66
2022-07-26T04:10:59.995Z,101202.16
2022-07-26T04:13:29.720Z,101211.94
2022-07-26T04:15:59.433Z,101211.97
2022-07-26T04:18:29.171Z,101211.94
2022-07-26T04:20:58.925Z,101202.13
2022-07-26T04:23:31.292Z,101215.47
2022-07-26T04:26:01.435Z,101216.38
2022-07-26T04:28:31.594Z,101227.00
2022-07-26T04:31:02.332Z,101229.66
2022-07-26T04:33:33.186Z,101237.63
2022-07-26T04:36:03.570Z,101243.03
2022-07-26T04:38:35.930Z,101233.31
2022-07-26T04:41:05.951Z,101244.88
2022-07-26T04:43:35.726Z,101248.47
2022-07-26T04:46:05.906Z,101251.00
2022-07-26T04:48:35.739Z,101258.06
2022-07-26T04:51:05.544Z,101261.44
2022-07-26T04:53:37.865Z,101271.94
2022-07-26T04:56:08.064Z,101268.44
2022-07-26T04:58:37.934Z,101271.09
2022-07-26T05:01:10.447Z,101280.91
2022-07-26T05:03:40.966Z,101281.78
2022-07-26T05:06:10.885Z,101286.28
2022-07-26T05:08:43.488Z,101289.00
2022-07-26T05:11:13.583Z,101287.16
2022-07-26T05:13:43.476Z,101281.88
2022-07-26T05:16:13.206Z,101283.69
2022-07-26T05:18:49.078Z,101285.50
2022-07-26T05:21:19.978Z,101297.06
2022-07-26T05:23:52.316Z,101289.91
2022-07-26T05:26:22.037Z,101291.69
2022-07-26T05:28:51.812Z,101298.72
2022-07-26T05:31:21.623Z,101302.25
2022-07-26T05:33:51.386Z,101312.97
2022-07-26T05:36:21.198Z,101314.81
2022-07-26T05:38:53.525Z,101312.03
2022-07-26T05:41:23.233Z,101321.91
2022-07-26T05:43:52.977Z,101323.69
2022-07-26T05:46:22.755Z,101324.47
2022-07-26T05:48:52.556Z,101332.47
2022-07-26T05:51:22.295Z,101333.38
2022-07-26T05:53:54.578Z,101335.13
2022-07-26T05:56:24.377Z,101349.31
2022-07-26T05:58:54.377Z,101346.72
2022-07-26T06:01:24.102Z,101353.84
2022-07-26T06:03:54.234Z,101359.19
2022-07-26T06:06:23.988Z,101359.97
2022-07-26T06:08:56.573Z,101373.28
2022-07-26T06:11:26.494Z,101371.56
2022-07-26T06:13:56.713Z,101382.28
2022-07-26T06:16:26.573Z,101378.66
2022-07-26T06:18:56.264Z,101381.38
2022-07-26T06:21:26.155Z,101375.13
2022-07-26T06:23:58.471Z,101386.72
2022-07-26T06:26:28.260Z,101383.97
2022-07-26T06:28:57.957Z,101394.72
2022-07-26T06:31:27.793Z,101403.63
2022-07-26T06:33:57.547Z,101403.66
2022-07-26T06:36:30.460Z,101409.03
2022-07-26T06:39:03.282Z,101402.00
2022-07-26T06:41:33.207Z,101409.13
2022-07-26T06:44:02.885Z,101411.78
2022-07-26T06:46:32.645Z,101408.25
2022-07-26T06:49:02.529Z,101421.63
2022-07-26T06:51:32.321Z,101426.91
2022-07-26T06:54:06.029Z,101431.38
2022-07-26T06:56:36.048Z,101428.75
2022-07-26T06:59:09.394Z,101429.69
2022-07-26T07:01:51.299Z,101427.94
2022-07-26T07:04:29.241Z,101432.47
2022-07-26T07:07:05.274Z,101442.28
2022-07-26T07:09:39.117Z,101450.22
2022-07-26T07:12:10.913Z,101451.97
2022-07-26T07:14:41.241Z,101447.44
2022-07-26T07:17:15.941Z,101452.75
2022-07-26T07:19:48.312Z,101448.28
2022-07-26T07:22:18.284Z,101451.75
2022-07-26T07:24:50.626Z,101454.47
2022-07-26T07:27:20.946Z,101463.44
2022-07-26T07:29:50.749Z,101461.78
2022-07-26T07:32:20.540Z,101461.81
2022-07-26T07:34:50.801Z,101454.75
2022-07-26T07:37:20.898Z,101461.97
2022-07-26T07:39:53.250Z,101473.59
2022-07-26T07:42:23.800Z,101476.19
2022-07-26T07:44:53.510Z,101479.06
2022-07-26T07:47:23.286Z,101482.69
2022-07-26T07:49:53.008Z,101488.06
2022-07-26T07:52:22.716Z,101483.72
2022-07-26T07:55:11.614Z,101486.50
2022-07-26T07:57:44.760Z,101487.34
2022-07-26T08:00:19.493Z,101485.63
2022-07-26T08:02:57.109Z,101493.53
2022-07-26T08:05:26.835Z,101497.94
2022-07-26T08:07:56.863Z,101497.03
2022-07-26T08:10:29.642Z,101499.72
2022-07-26T08:12:59.366Z,101507.78
2022-07-26T08:15:29.083Z,101497.28
2022-07-26T08:18:00.697Z,101500.91
2022-07-26T08:20:31.040Z,101508.13
2022-07-26T08:23:00.841Z,101521.50
2022-07-26T08:25:33.298Z,101524.09
2022-07-26T08:28:03.974Z,101530.19
2022-07-26T08:30:33.973Z,101525.66
2022-07-26T08:33:04.224Z,101531.72
2022-07-26T08:35:34.068Z,101530.03
2022-07-26T08:38:03.804Z,101537.19
2022-07-26T08:40:36.866Z,101536.47
2022-07-26T08:43:07.028Z,101536.53
2022-07-26T08:45:37.003Z,101549.03
2022-07-26T08:48:17.340Z,101551.63
2022-07-26T08:50:48.113Z,101551.63
2022-07-26T08:53:18.372Z,101553.28
2022-07-26T08:56:06.558Z,101552.38
2022-07-26T08:58:40.963Z,101564.00
2022-07-26T09:01:13.211Z,101553.31
2022-07-26T09:03:44.155Z,101562.31
2022-07-26T09:06:16.191Z,101568.63
2022-07-26T09:08:47.209Z,101569.53
2022-07-26T09:11:34.596Z,101574.00
2022-07-26T09:14:06.019Z,101589.19
2022-07-26T09:16:40.151Z,101586.59
2022-07-26T09:19:22.769Z,101583.97
2022-07-26T09:21:55.655Z,101594.59
2022-07-26T09:24:36.730Z,101608.81
2022-07-26T09:27:11.818Z,101602.63
2022-07-26T09:29:49.830Z,101604.44
2022-07-26T09:32:21.570Z,101608.09
2022-07-26T09:34:57.748Z,101612.63
2022-07-26T09:37:38.333Z,101621.56
2022-07-26T09:40:10.378Z,101615.34
2022-07-26T09:42:57.115Z,101616.22
2022-07-26T09:45:27.892Z,101624.22
2022-07-26T09:47:57.909Z,101620.69
2022-07-26T09:50:31.894Z,101626.03
2022-07-26T09:53:09.681Z,101629.69
2022-07-26T09:55:56.521Z,101626.94
2022-07-26T09:58:30.846Z,101626.91
2022-07-26T10:01:02.446Z,101626.00
2022-07-26T10:03:33.479Z,101642.06
2022-07-26T10:06:04.122Z,101637.59
2022-07-26T10:08:34.416Z,101638.53
2022-07-26T10:11:08.162Z,101636.81
2022-07-26T10:13:40.921Z,101645.78
2022-07-26T10:16:34.741Z,101641.41
2022-07-26T10:19:05.088Z,101644.13
2022-07-26T10:21:35.393Z,101643.28
2022-07-26T10:24:08.688Z,101653.09
2022-07-26T10:26:45.733Z,101640.59
2022-07-26T10:29:29.573Z,101645.97
2022-07-26T10:32:23.153Z,101657.59
2022-07-26T10:34:53.040Z,101665.63
2022-07-26T10:37:30.592Z,101660.28
2022-07-26T10:40:22.903Z,101653.19
2022-07-26T10:42:52.613Z,101658.47
2022-07-26T10:45:26.151Z,101644.25
2022-07-26T10:48:15.137Z,101661.22
2022-07-26T10:50:47.066Z,101646.88
2022-07-26T10:53:21.491Z,101663.81
2022-07-26T10:55:54.010Z,101657.56
2022-07-26T10:58:24.634Z,101648.69
2022-07-26T11:01:02.278Z,101654.91
2022-07-26T11:03:41.488Z,101652.22
2022-07-26T11:06:15.877Z,101662.13
2022-07-26T11:08:48.338Z,101668.38
2022-07-26T11:11:31.509Z,101671.94
2022-07-26T11:14:09.488Z,101669.31
2022-07-26T11:16:43.916Z,101676.44
2022-07-26T11:19:19.185Z,101672.84
2022-07-26T11:21:50.065Z,101687.16
2022-07-26T11:24:19.871Z,101683.56
2022-07-26T11:26:50.518Z,101691.59
2022-07-26T11:29:38.628Z,101687.13
2022-07-26T11:32:20.296Z,101686.25
2022-07-26T11:34:50.611Z,101697.88
2022-07-26T11:37:20.328Z,101707.69
2022-07-26T11:39:50.120Z,101698.78
2022-07-26T11:42:22.551Z,101701.44
2022-07-26T11:44:54.155Z,101703.22
2022-07-26T11:47:27.154Z,101699.63
2022-07-26T11:52:46.986Z,101698.78
2022-07-26T11:55:16.744Z,101708.59
2022-07-26T11:57:46.466Z,101703.22
2022-07-26T12:00:18.333Z,101709.44
2022-07-26T12:02:55.759Z,101701.41
2022-07-26T12:05:26.854Z,101699.59
2022-07-26T12:08:03.104Z,101700.53
2022-07-26T12:10:33.547Z,101711.22
2022-07-26T12:13:11.070Z,101717.44
2022-07-26T12:15:48.238Z,101713.84
2022-07-26T12:18:31.372Z,101720.94
2022-07-26T12:21:05.480Z,101721.78
2022-07-26T12:23:48.394Z,101716.53
2022-07-26T12:26:23.289Z,101722.81
2022-07-26T12:28:53.218Z,101723.66
2022-07-26T12:31:30.386Z,101723.69
2022-07-26T12:34:03.621Z,101719.22
2022-07-26T12:36:36.902Z,101729.88
2022-07-26T12:39:07.470Z,101737.88
2022-07-26T12:41:38.614Z,101728.94
2022-07-26T12:44:11.967Z,101724.50
2022-07-26T12:46:45.029Z,101718.31
2022-07-26T12:49:17.833Z,101724.56
2022-07-26T12:51:47.629Z,101727.22
2022-07-26T12:54:17.449Z,101717.44
2022-07-26T12:56:47.186Z,101727.25
2022-07-26T12:59:18.704Z,101724.59
2022-07-26T13:01:48.572Z,101727.25
2022-07-26T13:04:21.033Z,101733.53
2022-07-26T13:06:50.828Z,101734.44
2022-07-26T13:09:20.551Z,101744.22
2022-07-26T13:11:50.334Z,101745.09
2022-07-26T13:14:20.093Z,101741.50
2022-07-26T13:16:49.860Z,101740.63
2022-07-26T13:19:22.552Z,101745.13
2022-07-26T13:21:53.154Z,101747.75
2022-07-26T13:24:23.057Z,101749.56
2022-07-26T13:26:53.370Z,101742.41
2022-07-26T13:29:23.301Z,101738.88
2022-07-26T13:31:53.944Z,101736.22
2022-07-26T13:34:29.282Z,101751.34
2022-07-26T13:37:08.310Z,101751.38
2022-07-26T13:39:38.402Z,101744.25
2022-07-26T13:42:08.725Z,101745.97
2022-07-26T13:44:38.419Z,101754.00
2022-07-26T13:47:08.343Z,101747.78
2022-07-26T13:49:40.706Z,101739.78
2022-07-26T13:52:15.552Z,101748.75
2022-07-26T13:54:46.469Z,101757.69
2022-07-26T13:57:16.345Z,101750.56
2022-07-26T13:59:46.049Z,101746.97
2022-07-26T14:02:16.007Z,101755.88
2022-07-26T14:04:48.676Z,101771.03
2022-07-26T14:07:18.414Z,101765.69
2022-07-26T14:09:48.151Z,101765.63
2022-07-26T14:12:17.985Z,101765.63
2022-07-26T14:14:47.705Z,101768.31
2022-07-26T14:17:17.468Z,101776.34
2022-07-26T14:19:51.007Z,101778.97
2022-07-26T14:22:20.758Z,101776.19
2022-07-26T14:24:50.478Z,101783.25
2022-07-26T14:27:20.337Z,101785.94
2022-07-26T14:29:50.189Z,101793.00
2022-07-26T14:32:22.172Z,101781.50
2022-07-26T14:34:54.904Z,101780.59
2022-07-26T14:37:42.220Z,101778.84
2022-07-26T14:40:16.469Z,101786.84
2022-07-26T14:42:58.556Z,101790.44
2022-07-26T14:45:28.932Z,101792.25
2022-07-26T14:47:59.556Z,101792.25
2022-07-26T14:50:46.958Z,101793.09
2022-07-26T14:53:22.417Z,101794.91
2022-07-26T14:55:52.155Z,101802.97
2022-07-26T14:58:22.338Z,101796.75
2022-07-26T15:00:53.836Z,101799.38
2022-07-26T15:03:23.693Z,101797.50
2022-07-26T15:05:56.137Z,101803.75
2022-07-26T15:08:26.011Z,101800.97
2022-07-26T15:11:38.033Z,101802.66
2022-07-26T15:14:08.192Z,101797.31
2022-07-26T15:16:38.358Z,101801.72
2022-07-26T15:19:08.395Z,101802.63
2022-07-26T15:21:40.751Z,101799.03
2022-07-26T15:24:14.327Z,101799.03
2022-07-26T15:26:45.365Z,101804.31
2022-07-26T15:29:16.826Z,101805.97
2022-07-26T15:31:46.713Z,101808.66
2022-07-26T15:34:17.724Z,101805.06
2022-07-26T15:36:50.166Z,101801.41
2022-07-26T15:39:19.973Z,101805.00
2022-07-26T15:41:50.845Z,101807.66
2022-07-26T15:44:24.276Z,101802.38
2022-07-26T15:46:55.844Z,101814.84
2022-07-26T15:49:26.258Z,101798.81
2022-07-26T15:51:58.658Z,101802.41
2022-07-26T15:54:28.760Z,101806.00
2022-07-26T15:56:58.513Z,101808.72
2022-07-26T16:03:01.400Z,101815.75
2022-07-26T16:05:31.222Z,101807.75
2022-07-26T16:08:03.513Z,101803.38
2022-07-26T16:10:33.306Z,101799.81
2022-07-26T16:13:03.118Z,101806.03
2022-07-26T16:15:32.881Z,101805.16
2022-07-26T16:18:06.350Z,101803.31
2022-07-26T16:20:37.007Z,101797.16
2022-07-26T16:23:09.413Z,101806.94
2022-07-26T16:25:39.197Z,101803.31
2022-07-26T16:28:10.100Z,101802.41
2022-07-26T16:30:39.953Z,101802.44
2022-07-26T16:33:09.845Z,101811.38
2022-07-26T16:35:39.672Z,101809.47
2022-07-26T16:38:12.069Z,101799.66
2022-07-26T16:40:41.906Z,101810.31
2022-07-26T16:43:12.015Z,101801.38
2022-07-26T16:45:42.173Z,101806.56
2022-07-26T16:48:12.863Z,101807.31
2022-07-26T16:50:43.455Z,101805.56
2022-07-26T16:53:15.845Z,101805.53
2022-07-26T16:55:47.232Z,101808.19
2022-07-26T16:58:17.024Z,101805.44
2022-07-26T17:00:47.123Z,101813.50
2022-07-26T17:03:17.616Z,101816.94
2022-07-26T17:05:47.504Z,101823.06
2022-07-26T17:08:21.041Z,101821.88
2022-07-26T17:10:50.830Z,101821.88
2022-07-26T17:13:20.628Z,101824.19
2022-07-26T17:15:50.610Z,101819.72
2022-07-26T17:18:20.586Z,101823.31
2022-07-26T17:20:50.371Z,101824.25
2022-07-26T17:23:22.764Z,101826.91
2022-07-26T17:25:52.543Z,101830.50
2022-07-26T17:28:22.338Z,101826.13
2022-07-26T17:30:52.126Z,101818.09
2022-07-26T17:33:22.045Z,101820.66
2022-07-26T17:35:51.845Z,101822.41
2022-07-26T17:38:24.275Z,101811.81
2022-07-26T17:40:56.664Z,101816.19
2022-07-26T17:43:36.407Z,101811.75
2022-07-26T17:46:07.020Z,101820.66
2022-07-26T17:48:36.950Z,101822.50
2022-07-26T17:51:06.997Z,101817.03
2022-07-26T17:53:39.410Z,101812.50
2022-07-26T17:56:09.262Z,101813.44
2022-07-26T17:58:39.027Z,101817.06
2022-07-26T18:01:09.401Z,101812.59
2022-07-26T18:03:39.195Z,101812.50
2022-07-26T18:06:09.413Z,101813.19
2022-07-26T18:08:41.884Z,101816.78
2022-07-26T18:11:12.769Z,101805.25
2022-07-26T18:13:42.544Z,101810.47
2022-07-26T18:16:13.077Z,101807.81
2022-07-26T18:18:43.544Z,101805.00
2022-07-26T18:21:13.597Z,101808.63
2022-07-26T18:24:06.671Z,101808.75
2022-07-26T18:26:35.844Z,101804.19
2022-07-26T18:29:05.833Z,101805.03
2022-07-26T18:31:35.957Z,101805.94
2022-07-26T18:34:06.785Z,101803.31
2022-07-26T18:36:36.860Z,101809.50
2022-07-26T18:39:09.626Z,101810.28
2022-07-26T18:41:39.668Z,101805.81
2022-07-26T18:44:09.503Z,101813.81
2022-07-26T18:46:42.552Z,101813.72
2022-07-26T18:52:31.904Z,101816.22
2022-07-26T18:55:08.100Z,101810.88
2022-07-26T18:57:38.267Z,101815.47
2022-07-26T19:00:09.551Z,101816.44
2022-07-26T19:02:39.268Z,101816.31
2022-07-26T19:05:09.725Z,101813.63
2022-07-26T19:07:40.273Z,101817.22
2022-07-26T19:10:13.622Z,101819.88
2022-07-26T19:12:43.936Z,101823.34
2022-07-26T19:15:14.677Z,101818.84
2022-07-26T19:17:45.034Z,101816.09
2022-07-26T19:20:15.592Z,101813.44
2022-07-26T19:22:47.416Z,101821.28
2022-07-26T19:25:20.769Z,101830.25
2022-07-26T19:27:50.464Z,101828.53
2022-07-26T19:30:20.295Z,101829.41
2022-07-26T19:32:50.037Z,101840.06
2022-07-26T19:35:22.641Z,101825.84
2022-07-26T19:37:52.418Z,101834.66
2022-07-26T19:40:24.827Z,101839.06
2022-07-26T19:42:54.607Z,101839.00
2022-07-26T19:45:24.617Z,101833.63
2022-07-26T19:47:54.371Z,101838.16
2022-07-26T19:50:24.473Z,101839.19
2022-07-26T19:52:54.194Z,101843.69
2022-07-26T19:55:26.569Z,101843.94
2022-07-26T19:57:56.305Z,101846.59
2022-07-26T20:00:26.980Z,101841.06
2022-07-26T20:02:56.695Z,101845.34
2022-07-26T20:05:26.625Z,101848.91
2022-07-26T20:07:56.400Z,101856.81
2022-07-26T20:10:31.974Z,101856.59
2022-07-26T20:13:02.293Z,101858.44
2022-07-26T20:15:32.071Z,101861.00
2022-07-26T20:18:01.814Z,101856.53
2022-07-26T20:20:31.690Z,101864.53
2022-07-26T20:23:02.343Z,101853.03
2022-07-26T20:25:34.738Z,101857.53
2022-07-26T20:28:04.459Z,101863.78
2022-07-26T20:30:34.396Z,101853.13
2022-07-26T20:33:04.131Z,101860.97
2022-07-26T20:35:34.234Z,101863.59
2022-07-26T20:38:04.036Z,101863.47
2022-07-26T20:40:36.434Z,101861.66
2022-07-26T20:43:07.704Z,101865.19
2022-07-26T20:45:37.472Z,101861.66
2022-07-26T20:48:08.037Z,101861.59
2022-07-26T20:50:38.489Z,101859.84
2022-07-26T20:53:08.207Z,101866.03
2022-07-26T20:55:40.565Z,101871.28
2022-07-26T20:58:10.267Z,101871.22
2022-07-26T21:00:40.002Z,101872.09
2022-07-26T21:03:10.015Z,101868.59
2022-07-26T21:05:39.727Z,101873.94
2022-07-26T21:08:09.509Z,101871.19
2022-07-26T21:10:42.101Z,101869.34
2022-07-26T21:13:12.402Z,101870.25
2022-07-26T21:15:42.536Z,101866.69
2022-07-26T21:18:12.434Z,101876.50
2022-07-26T21:20:43.088Z,101874.69
2022-07-26T21:23:17.762Z,101876.50
2022-07-26T21:25:57.932Z,101875.63
2022-07-26T21:28:29.295Z,101876.22
2022-07-26T21:30:59.029Z,101883.31
2022-07-26T21:33:28.724Z,101877.00
2022-07-26T21:35:58.441Z,101878.81
2022-07-26T21:38:29.909Z,101876.22
2022-07-26T21:41:02.274Z,101873.28
2022-07-26T21:43:32.237Z,101873.31
2022-07-26T21:46:02.083Z,101874.25
2022-07-26T21:48:32.449Z,101879.50
2022-07-26T21:51:02.241Z,101880.38
2022-07-26T21:53:32.004Z,101878.56
2022-07-26T21:56:05.749Z,101876.81
2022-07-26T21:58:36.849Z,101881.13
2022-07-26T22:01:07.572Z,101882.00
2022-07-26T22:03:39.216Z,101888.88
2022-07-26T22:06:10.341Z,101881.63
2022-07-26T22:08:40.606Z,101890.59
2022-07-26T22:11:20.018Z,101893.13
2022-07-26T22:13:49.833Z,101894.09
2022-07-26T22:16:19.648Z,101887.53
2022-07-26T22:18:49.458Z,101889.38
2022-07-26T22:21:19.198Z,101890.16
2022-07-26T22:23:49.466Z,101884.75
2022-07-26T22:26:26.281Z,101897.28
2022-07-26T22:28:56.060Z,101892.75
2022-07-26T22:31:26.054Z,101891.81
2022-07-26T22:33:55.869Z,101894.41
2022-07-26T22:36:25.616Z,101905.94
2022-07-26T22:38:55.468Z,101896.84
2022-07-26T22:41:31.695Z,101897.50
2022-07-26T22:44:02.396Z,101900.28
2022-07-26T22:46:32.138Z,101897.78
2022-07-26T22:49:01.932Z,101889.94
2022-07-26T22:51:31.824Z,101887.44
2022-07-26T22:54:01.580Z,101888.28
2022-07-26T22:56:34.054Z,101878.63
2022-07-26T22:59:03.754Z,101884.94
2022-07-26T23:01:33.551Z,101893.06
2022-07-26T23:04:03.468Z,101885.16
2022-07-26T23:06:35.973Z,101894.09
2022-07-26T23:09:05.747Z,101882.66
2022-07-26T23:11:38.083Z,101884.47
2022-07-26T23:14:07.823Z,101882.75
2022-07-26T23:16:37.625Z,101889.91
2022-07-26T23:19:07.831Z,101882.78
2022-07-26T23:21:37.691Z,101882.72
2022-07-26T23:24:07.791Z,101888.06
2022-07-26T23:26:40.198Z,101884.59
2022-07-26T23:29:10.535Z,101886.38
2022-07-26T23:31:42.310Z,101887.25
2022-07-26T23:34:12.135Z,101878.38
2022-07-26T23:36:41.875Z,101877.59
2022-07-26T23:39:11.930Z,101893.59
2022-07-26T23:41:44.484Z,101890.78
2022-07-26T23:44:14.219Z,101890.75
2022-07-26T23:46:44.048Z,101884.44
2022-07-26T23:49:14.401Z,101879.00
2022-07-26T23:51:44.393Z,101881.50
2022-07-26T23:54:14.119Z,101881.44
2022-07-26T23:56:47.642Z,101887.44
2022-07-26T23:59:17.518Z,101879.34
